Time;durP1;ratioP1;P1;durP2;ratioP2;P2;SDS_P1;SDS_P2;PMS_P1;PMS_P2;Temp;Humidity;BMP_temperature;BMP_pressure;BME280_temperature;BME280_humidity;BME280_pressure;Samples;Min_cycle;Max_cycle;Signal;HPM_P1;HPM_P2
2022/09/12 00:02:03;;;;;;;62.17;6.10;;;;;;;;;;5074502;28;20458;-63
2022/09/12 00:04:30;;;;;;;61.40;5.47;;;;;;;;;;5074270;28;20486;-63
2022/09/12 00:06:58;;;;;;;64.87;6.50;;;;;;;;;;5074752;28;20453;-63
2022/09/12 00:09:25;;;;;;;61.97;5.50;;;;;;;;;;5073999;28;20451;-63
2022/09/12 00:11:52;;;;;;;61.67;5.90;;;;;;;;;;5074378;28;20803;-63
2022/09/12 00:14:19;;;;;;;62.57;6.50;;;;;;;;;;5074160;28;20472;-63
2022/09/12 00:16:48;;;;;;;60.60;5.50;;;;;;;;;;5074157;28;20440;-64
2022/09/12 00:19:15;;;;;;;73.63;5.97;;;;;;;;;;5073520;28;20457;-65
2022/09/12 00:21:42;;;;;;;62.27;6.00;;;;;;;;;;5074190;28;20462;-63
2022/09/12 00:24:10;;;;;;;62.10;5.90;;;;;;;;;;5073731;28;20471;-63
2022/09/12 00:26:38;;;;;;;62.50;6.30;;;;;;;;;;5071300;28;20933;-63
2022/09/12 00:29:05;;;;;;;61.50;5.77;;;;;;;;;;5073740;28;20439;-63
2022/09/12 00:31:32;;;;;;;60.80;4.90;;;;;;;;;;5073788;28;20458;-63
2022/09/12 00:34:00;;;;;;;62.27;5.73;;;;;;;;;;5073420;28;20490;-63
2022/09/12 00:36:29;;;;;;;61.40;5.43;;;;;;;;;;5073899;28;20550;-63
2022/09/12 00:38:56;;;;;;;62.27;5.70;;;;;;;;;;5073558;28;20505;-63
2022/09/12 00:41:25;;;;;;;61.93;5.10;;;;;;;;;;5073616;28;20447;-63
2022/09/12 00:43:53;;;;;;;61.70;5.60;;;;;;;;;;5073567;28;20471;-64
2022/09/12 00:46:26;;;;;;;63.20;6.30;;;;;;;;;;5073294;28;20487;-63
2022/09/12 00:48:57;;;;;;;61.87;6.33;;;;;;;;;;5073420;28;20808;-63
2022/09/12 00:51:25;;;;;;;61.10;5.93;;;;;;;;;;5074662;28;20467;-64
2022/09/12 00:53:53;;;;;;;62.90;6.23;;;;;;;;;;5075740;28;20467;-65
2022/09/12 00:56:22;;;;;;;64.27;6.47;;;;;;;;;;5074108;28;20936;-63
2022/09/12 00:58:51;;;;;;;62.43;6.13;;;;;;;;;;5070062;28;20475;-63
2022/09/12 01:01:19;;;;;;;62.87;5.60;;;;;;;;;;5073588;28;20462;-64
2022/09/12 01:03:46;;;;;;;62.90;5.90;;;;;;;;;;5073264;28;20497;-64
2022/09/12 01:06:16;;;;;;;61.83;6.10;;;;;;;;;;5073054;28;20483;-63
2022/09/12 01:08:46;;;;;;;62.10;5.97;;;;;;;;;;5072824;28;20458;-63
2022/09/12 01:11:13;;;;;;;61.20;5.70;;;;;;;;;;5073654;28;20447;-64
2022/09/12 01:13:40;;;;;;;61.87;5.87;;;;;;;;;;5072906;28;20987;-64
2022/09/12 01:16:08;;;;;;;61.77;5.70;;;;;;;;;;5073115;28;20440;-63
2022/09/12 01:18:41;;;;;;;62.47;5.53;;;;;;;;;;5072586;28;20443;-63
2022/09/12 01:21:11;;;;;;;61.83;5.63;;;;;;;;;;5072840;28;20959;-64
2022/09/12 01:24:09;;;;;;;62.37;5.77;;;;;;;;;;5072887;28;20468;-64
2022/09/12 01:26:58;;;;;;;64.30;5.70;;;;;;;;;;5072862;28;20483;-63
2022/09/12 01:29:33;;;;;;;61.73;5.37;;;;;;;;;;5072294;28;20447;-63
2022/09/12 01:32:04;;;;;;;61.90;5.30;;;;;;;;;;5070572;28;20474;-64
2022/09/12 01:34:36;;;;;;;62.47;5.93;;;;;;;;;;5072580;28;20490;-64
2022/09/12 01:37:06;;;;;;;62.13;6.37;;;;;;;;;;5072730;28;20455;-63
2022/09/12 01:39:36;;;;;;;63.07;5.73;;;;;;;;;;5054638;28;20453;-65
2022/09/12 01:42:10;;;;;;;62.00;5.13;;;;;;;;;;5052388;28;20950;-64
2022/09/12 01:44:40;;;;;;;63.50;6.03;;;;;;;;;;5052380;28;20471;-63
2022/09/12 01:47:10;;;;;;;62.27;5.77;;;;;;;;;;5052618;28;20456;-64
2022/09/12 01:49:41;;;;;;;64.17;6.40;;;;;;;;;;5052548;28;20455;-63
2022/09/12 01:52:12;;;;;;;62.07;5.50;;;;;;;;;;5052376;28;20505;-64
2022/09/12 01:54:42;;;;;;;61.57;5.63;;;;;;;;;;5052085;28;20470;-63
2022/09/12 01:57:12;;;;;;;63.27;7.17;;;;;;;;;;5052509;28;20470;-64
2022/09/12 01:59:41;;;;;;;63.73;5.77;;;;;;;;;;5052203;28;20856;-63
2022/09/12 02:02:13;;;;;;;61.80;5.87;;;;;;;;;;5052360;28;20444;-64
2022/09/12 02:04:42;;;;;;;62.77;6.50;;;;;;;;;;5058157;28;20472;-64
2022/09/12 02:07:11;;;;;;;61.80;5.70;;;;;;;;;;5072353;28;20435;-63
2022/09/12 02:09:41;;;;;;;63.10;6.63;;;;;;;;;;5071959;28;20451;-63
2022/09/12 02:12:10;;;;;;;61.60;5.97;;;;;;;;;;5072130;28;20447;-63
2022/09/12 02:14:38;;;;;;;62.30;6.37;;;;;;;;;;5071821;28;20482;-63
2022/09/12 02:17:07;;;;;;;61.70;5.60;;;;;;;;;;5071867;28;20440;-64
2022/09/12 02:19:38;;;;;;;62.27;5.70;;;;;;;;;;5071375;28;20816;-64
2022/09/12 02:22:07;;;;;;;61.93;6.30;;;;;;;;;;5071636;28;20447;-63
2022/09/12 02:24:37;;;;;;;61.00;5.30;;;;;;;;;;5071629;28;20478;-63
2022/09/12 02:27:06;;;;;;;63.70;5.93;;;;;;;;;;5071814;28;20487;-63
2022/09/12 02:29:33;;;;;;;63.07;6.10;;;;;;;;;;5071412;28;20451;-64
2022/09/12 02:32:05;;;;;;;62.00;6.00;;;;;;;;;;5071598;28;20836;-64
2022/09/12 02:34:37;;;;;;;63.80;6.50;;;;;;;;;;5071601;28;20483;-63
2022/09/12 02:37:10;;;;;;;64.60;6.07;;;;;;;;;;5069671;28;20941;-63
2022/09/12 02:39:37;;;;;;;61.80;5.57;;;;;;;;;;5071405;28;20455;-64
2022/09/12 02:42:05;;;;;;;62.90;5.87;;;;;;;;;;5071628;28;20449;-63
2022/09/12 02:44:33;;;;;;;61.97;5.67;;;;;;;;;;5071404;28;20471;-64
2022/09/12 02:47:03;;;;;;;62.77;6.70;;;;;;;;;;5071721;28;20483;-63
2022/09/12 02:49:30;;;;;;;62.50;6.10;;;;;;;;;;5071551;28;20454;-64
2022/09/12 02:51:57;;;;;;;64.30;6.10;;;;;;;;;;5071525;28;20447;-63
2022/09/12 02:54:25;;;;;;;63.23;6.17;;;;;;;;;;5071538;28;20489;-64
2022/09/12 02:56:52;;;;;;;63.17;6.60;;;;;;;;;;5071480;28;20447;-63
2022/09/12 02:59:21;;;;;;;63.17;6.20;;;;;;;;;;5070970;28;20936;-64
2022/09/12 03:01:58;;;;;;;63.07;6.27;;;;;;;;;;5071583;28;20447;-64
2022/09/12 03:04:40;;;;;;;68.80;5.80;;;;;;;;;;5071245;28;20478;-64
2022/09/12 03:07:13;;;;;;;62.53;6.00;;;;;;;;;;5068835;28;20490;-64
2022/09/12 03:09:46;;;;;;;62.50;6.33;;;;;;;;;;5071093;28;20444;-63
2022/09/12 03:12:20;;;;;;;63.27;5.60;;;;;;;;;;5071169;28;20505;-63
2022/09/12 03:15:00;;;;;;;63.37;6.50;;;;;;;;;;5071276;28;20512;-63
2022/09/12 03:17:31;;;;;;;62.83;6.23;;;;;;;;;;5071384;28;20541;-63
2022/09/12 03:19:59;;;;;;;64.43;6.70;;;;;;;;;;5070629;28;20486;-63
2022/09/12 03:22:30;;;;;;;65.37;5.53;;;;;;;;;;5071377;28;20447;-63
2022/09/12 03:25:03;;;;;;;65.07;7.10;;;;;;;;;;5071165;28;20991;-64
2022/09/12 03:27:33;;;;;;;61.87;5.77;;;;;;;;;;5071208;28;20478;-64
2022/09/12 03:30:00;;;;;;;61.67;5.77;;;;;;;;;;5070902;28;20647;-63
2022/09/12 03:32:44;;;;;;;62.13;5.90;;;;;;;;;;5070956;28;20455;-63
2022/09/12 03:35:11;;;;;;;61.73;5.93;;;;;;;;;;5073935;28;20463;-64
2022/09/12 03:37:38;;;;;;;61.90;6.10;;;;;;;;;;5074754;28;20958;-64
2022/09/12 03:40:07;;;;;;;61.67;5.30;;;;;;;;;;5074608;28;20840;-63
2022/09/12 03:42:35;;;;;;;61.87;5.70;;;;;;;;;;5072031;28;20458;-64
2022/09/12 03:45:02;;;;;;;66.70;5.67;;;;;;;;;;5074526;28;20475;-63
2022/09/12 03:47:29;;;;;;;63.27;6.20;;;;;;;;;;5074960;28;20494;-63
2022/09/12 03:49:56;;;;;;;62.70;5.90;;;;;;;;;;5074409;28;20830;-63
2022/09/12 03:52:23;;;;;;;68.53;6.80;;;;;;;;;;5074705;28;20455;-64
2022/09/12 03:54:51;;;;;;;62.80;7.30;;;;;;;;;;5074484;28;20886;-64
2022/09/12 03:57:19;;;;;;;63.13;7.00;;;;;;;;;;5074508;28;20486;-63
2022/09/12 03:59:46;;;;;;;85.33;8.30;;;;;;;;;;5074069;28;20455;-63
2022/09/12 04:02:13;;;;;;;78.00;7.60;;;;;;;;;;5074594;28;20447;-64
2022/09/12 04:04:42;;;;;;;72.67;7.30;;;;;;;;;;5074265;28;20558;-64
2022/09/12 04:07:09;;;;;;;63.60;5.83;;;;;;;;;;5074220;28;21079;-64
2022/09/12 04:09:36;;;;;;;63.40;6.20;;;;;;;;;;5074010;28;20815;-64
2022/09/12 04:12:04;;;;;;;62.10;6.40;;;;;;;;;;5074332;28;20444;-64
2022/09/12 04:14:32;;;;;;;62.70;6.10;;;;;;;;;;5071735;28;20479;-64
2022/09/12 04:16:59;;;;;;;64.40;7.30;;;;;;;;;;5076253;28;20444;-64
2022/09/12 04:19:26;;;;;;;63.60;6.13;;;;;;;;;;5079062;28;20461;-64
2022/09/12 04:21:53;;;;;;;63.40;6.80;;;;;;;;;;5079126;28;20884;-64
2022/09/12 04:24:20;;;;;;;64.50;6.70;;;;;;;;;;5075282;28;20477;-64
2022/09/12 04:26:48;;;;;;;64.67;7.33;;;;;;;;;;5073776;28;20489;-64
2022/09/12 04:29:15;;;;;;;63.73;6.63;;;;;;;;;;5073827;28;20447;-64
2022/09/12 04:31:44;;;;;;;65.20;6.80;;;;;;;;;;5073980;28;20447;-63
2022/09/12 04:34:11;;;;;;;64.17;6.90;;;;;;;;;;5073810;28;20493;-64
2022/09/12 04:36:38;;;;;;;64.17;7.40;;;;;;;;;;5073686;28;20447;-63
2022/09/12 04:39:06;;;;;;;63.60;6.87;;;;;;;;;;5073325;28;20443;-63
2022/09/12 04:41:34;;;;;;;67.73;6.00;;;;;;;;;;5073918;28;20451;-64
2022/09/12 04:44:03;;;;;;;62.07;6.07;;;;;;;;;;5073749;28;20844;-63
2022/09/12 04:46:30;;;;;;;63.57;7.87;;;;;;;;;;5073031;28;20493;-63
2022/09/12 04:48:59;;;;;;;61.97;6.00;;;;;;;;;;5073358;28;20966;-64
2022/09/12 04:51:26;;;;;;;63.70;7.30;;;;;;;;;;5071200;28;20448;-64
2022/09/12 04:53:55;;;;;;;62.97;5.93;;;;;;;;;;5073317;28;21010;-63
2022/09/12 04:56:22;;;;;;;64.47;6.40;;;;;;;;;;5073564;28;20473;-63
2022/09/12 04:58:50;;;;;;;77.53;6.50;;;;;;;;;;5073240;28;20443;-64
2022/09/12 05:01:17;;;;;;;63.10;6.57;;;;;;;;;;5073563;28;20454;-64
2022/09/12 05:03:46;;;;;;;64.10;6.93;;;;;;;;;;5073231;28;20475;-65
2022/09/12 05:06:16;;;;;;;63.53;5.90;;;;;;;;;;5073121;28;20479;-65
2022/09/12 05:08:43;;;;;;;72.20;6.67;;;;;;;;;;5073262;28;20452;-65
2022/09/12 05:11:11;;;;;;;67.07;6.13;;;;;;;;;;5073630;28;20447;-64
2022/09/12 05:13:39;;;;;;;63.10;6.33;;;;;;;;;;5073055;28;20463;-64
2022/09/12 05:16:07;;;;;;;63.67;6.80;;;;;;;;;;5073016;28;20443;-65
2022/09/12 05:18:35;;;;;;;63.90;5.90;;;;;;;;;;5072449;28;20452;-65
2022/09/12 05:21:03;;;;;;;62.50;5.50;;;;;;;;;;5073077;28;20820;-65
2022/09/12 05:23:32;;;;;;;62.40;5.87;;;;;;;;;;5070768;28;20527;-66
2022/09/12 05:26:00;;;;;;;71.80;5.90;;;;;;;;;;5073362;28;20451;-64
2022/09/12 05:28:29;;;;;;;62.60;6.03;;;;;;;;;;5073672;28;20443;-67
2022/09/12 05:31:03;;;;;;;64.67;7.37;;;;;;;;;;5073526;28;20447;-64
2022/09/12 05:33:30;;;;;;;76.03;6.30;;;;;;;;;;5074755;28;20473;-65
2022/09/12 05:35:58;;;;;;;76.73;6.50;;;;;;;;;;5076308;28;20451;-65
2022/09/12 05:38:27;;;;;;;64.77;6.37;;;;;;;;;;5076114;28;20447;-64
2022/09/12 05:40:55;;;;;;;64.10;6.60;;;;;;;;;;5075030;28;20450;-66
2022/09/12 05:43:22;;;;;;;82.80;6.70;;;;;;;;;;5073953;28;20544;-65
2022/09/12 05:45:49;;;;;;;113.13;8.10;;;;;;;;;;5072334;28;20443;-65
2022/09/12 05:48:17;;;;;;;62.53;6.23;;;;;;;;;;5072222;28;20455;-64
2022/09/12 05:50:44;;;;;;;62.77;6.30;;;;;;;;;;5072178;28;20815;-65
2022/09/12 05:53:11;;;;;;;62.03;5.70;;;;;;;;;;5072236;28;20501;-65
2022/09/12 05:55:40;;;;;;;63.67;6.60;;;;;;;;;;5069353;28;20447;-64
2022/09/12 05:58:09;;;;;;;63.47;6.90;;;;;;;;;;5071442;28;20454;-65
2022/09/12 06:00:36;;;;;;;61.30;5.13;;;;;;;;;;5071681;28;20454;-64
2022/09/12 06:03:03;;;;;;;67.40;6.33;;;;;;;;;;5072363;28;20455;-65
2022/09/12 06:05:32;;;;;;;61.37;5.90;;;;;;;;;;5072323;28;20828;-65
2022/09/12 06:07:59;;;;;;;63.37;7.03;;;;;;;;;;5072089;28;20479;-65
2022/09/12 06:10:26;;;;;;;64.63;5.57;;;;;;;;;;5071801;28;20455;-65
2022/09/12 06:12:53;;;;;;;63.30;6.03;;;;;;;;;;5071214;28;20474;-65
2022/09/12 06:15:22;;;;;;;62.57;6.47;;;;;;;;;;5052162;28;20440;-65
2022/09/12 06:17:49;;;;;;;66.57;6.87;;;;;;;;;;5051974;28;20919;-65
2022/09/12 06:20:19;;;;;;;62.70;6.30;;;;;;;;;;5051953;28;20452;-65
2022/09/12 06:22:46;;;;;;;64.10;7.03;;;;;;;;;;5052086;28;20456;-64
2022/09/12 06:25:14;;;;;;;74.50;7.83;;;;;;;;;;5052474;28;20448;-64
2022/09/12 06:27:41;;;;;;;63.27;7.33;;;;;;;;;;5058611;28;20877;-64
2022/09/12 06:30:08;;;;;;;63.17;7.13;;;;;;;;;;5072166;28;20469;-66
2022/09/12 06:32:37;;;;;;;62.33;6.73;;;;;;;;;;5073442;28;20458;-65
2022/09/12 06:35:05;;;;;;;69.33;8.10;;;;;;;;;;5079103;28;20465;-65
2022/09/12 06:37:32;;;;;;;62.60;6.53;;;;;;;;;;5081033;28;20477;-65
2022/09/12 06:39:59;;;;;;;62.17;6.23;;;;;;;;;;5083821;28;20451;-65
2022/09/12 06:42:27;;;;;;;63.17;6.40;;;;;;;;;;5082793;28;20454;-66
2022/09/12 06:44:54;;;;;;;64.17;8.00;;;;;;;;;;5082228;28;20475;-66
2022/09/12 06:47:22;;;;;;;63.67;7.37;;;;;;;;;;5082910;28;21028;-66
2022/09/12 06:49:50;;;;;;;63.80;6.83;;;;;;;;;;5082840;28;20447;-66
2022/09/12 06:52:17;;;;;;;67.23;8.37;;;;;;;;;;5083797;28;20795;-66
2022/09/12 06:54:45;;;;;;;63.33;6.90;;;;;;;;;;5082540;28;20467;-65
2022/09/12 06:57:12;;;;;;;64.83;7.40;;;;;;;;;;5082660;28;20450;-66
2022/09/12 06:59:41;;;;;;;66.07;7.93;;;;;;;;;;5079165;28;20460;-66
2022/09/12 07:02:09;;;;;;;63.97;7.70;;;;;;;;;;5083113;28;20498;-66
2022/09/12 07:04:36;;;;;;;63.67;7.30;;;;;;;;;;5082053;28;20985;-66
2022/09/12 07:07:05;;;;;;;64.80;8.20;;;;;;;;;;5082137;28;20479;-65
2022/09/12 07:09:32;;;;;;;63.47;6.87;;;;;;;;;;5086841;28;20465;-65
2022/09/12 07:12:02;;;;;;;64.37;7.70;;;;;;;;;;5086574;28;20948;-66
2022/09/12 07:14:29;;;;;;;65.37;7.80;;;;;;;;;;5083812;28;21052;-66
2022/09/12 07:16:56;;;;;;;65.90;7.87;;;;;;;;;;5083987;28;20443;-65
2022/09/12 07:19:24;;;;;;;63.50;6.53;;;;;;;;;;5084260;28;20824;-66
2022/09/12 07:21:51;;;;;;;69.13;8.13;;;;;;;;;;5085059;28;20456;-65
2022/09/12 07:24:19;;;;;;;64.20;7.60;;;;;;;;;;5082951;28;20474;-65
2022/09/12 07:26:47;;;;;;;64.50;7.73;;;;;;;;;;5079447;28;21001;-64
2022/09/12 07:29:15;;;;;;;64.57;7.70;;;;;;;;;;5075410;28;21018;-65
2022/09/12 07:31:43;;;;;;;65.17;8.67;;;;;;;;;;5073856;28;20511;-65
2022/09/12 07:34:10;;;;;;;65.13;7.30;;;;;;;;;;5082509;28;20480;-66
2022/09/12 07:36:38;;;;;;;61.90;5.80;;;;;;;;;;5081986;28;20460;-66
2022/09/12 07:39:05;;;;;;;65.27;7.60;;;;;;;;;;5084126;28;20535;-65
2022/09/12 07:41:33;;;;;;;70.40;7.10;;;;;;;;;;5083510;28;20473;-66
2022/09/12 07:44:01;;;;;;;67.93;8.63;;;;;;;;;;5082828;28;20888;-65
2022/09/12 07:46:29;;;;;;;63.50;7.13;;;;;;;;;;5085943;28;20486;-66
2022/09/12 07:48:57;;;;;;;65.53;8.10;;;;;;;;;;5085250;28;20453;-66
2022/09/12 07:51:25;;;;;;;63.30;6.60;;;;;;;;;;5084553;28;20441;-65
2022/09/12 07:53:52;;;;;;;63.20;7.10;;;;;;;;;;5084495;28;21028;-66
2022/09/12 07:56:20;;;;;;;64.00;7.20;;;;;;;;;;5083863;28;20448;-65
2022/09/12 07:58:48;;;;;;;65.33;8.07;;;;;;;;;;5084651;28;20456;-66
2022/09/12 08:01:16;;;;;;;64.37;7.20;;;;;;;;;;5084041;28;20450;-65
2022/09/12 08:03:44;;;;;;;66.03;7.57;;;;;;;;;;5083567;28;20472;-65
2022/09/12 08:06:12;;;;;;;65.37;7.70;;;;;;;;;;5084941;28;20456;-65
2022/09/12 08:08:40;;;;;;;62.90;7.30;;;;;;;;;;5084814;28;20485;-66
2022/09/12 08:11:08;;;;;;;64.57;7.30;;;;;;;;;;5077043;28;20451;-65
2022/09/12 08:13:35;;;;;;;63.73;6.30;;;;;;;;;;5075116;28;20980;-65
2022/09/12 08:16:06;;;;;;;62.83;6.60;;;;;;;;;;5083672;28;20567;-66
2022/09/12 08:18:33;;;;;;;62.40;6.67;;;;;;;;;;5082016;28;20452;-66
2022/09/12 08:21:01;;;;;;;62.77;6.60;;;;;;;;;;5080093;28;21081;-65
2022/09/12 08:23:29;;;;;;;62.37;6.23;;;;;;;;;;5080624;28;20561;-65
2022/09/12 08:25:56;;;;;;;62.67;6.97;;;;;;;;;;5080723;28;20458;-65
2022/09/12 08:28:23;;;;;;;63.73;6.73;;;;;;;;;;5081108;28;20886;-65
2022/09/12 08:30:50;;;;;;;62.13;5.03;;;;;;;;;;5080738;28;20447;-66
2022/09/12 08:33:19;;;;;;;61.40;5.27;;;;;;;;;;5080760;28;20470;-66
2022/09/12 08:35:46;;;;;;;63.50;5.07;;;;;;;;;;5080281;28;20480;-66
2022/09/12 08:38:13;;;;;;;62.70;5.87;;;;;;;;;;5081912;28;20455;-66
2022/09/12 08:40:45;;;;;;;61.57;6.10;;;;;;;;;;5081559;28;20542;-65
2022/09/12 08:43:17;;;;;;;64.67;5.17;;;;;;;;;;5081100;28;20471;-65
2022/09/12 08:45:50;;;;;;;61.70;5.53;;;;;;;;;;5081970;28;20451;-65
2022/09/12 08:48:17;;;;;;;63.40;5.57;;;;;;;;;;5083730;28;20854;-63
2022/09/12 08:50:46;;;;;;;61.43;5.23;;;;;;;;;;5084655;28;20465;-64
2022/09/12 08:53:14;;;;;;;61.47;5.60;;;;;;;;;;5084041;28;20531;-64
2022/09/12 08:55:43;;;;;;;60.33;4.87;;;;;;;;;;5083679;28;20466;-63
2022/09/12 08:58:12;;;;;;;63.90;4.93;;;;;;;;;;5082630;28;20447;-64
2022/09/12 09:00:43;;;;;;;60.17;4.80;;;;;;;;;;5083366;28;20585;-64
2022/09/12 09:03:20;;;;;;;60.00;4.67;;;;;;;;;;5083511;28;20464;-65
2022/09/12 09:05:51;;;;;;;60.40;4.30;;;;;;;;;;5083808;28;20970;-65
2022/09/12 09:08:26;;;;;;;60.43;5.30;;;;;;;;;;5083536;28;20493;-66
2022/09/12 09:10:58;;;;;;;60.47;4.70;;;;;;;;;;5081891;28;20443;-65
2022/09/12 09:16:21;;;;;;;58.67;3.57;;;;;;;;;;5082595;28;20507;-65
2022/09/12 09:18:48;;;;;;;60.10;4.20;;;;;;;;;;5083072;28;20501;-65
2022/09/12 09:21:21;;;;;;;60.27;4.10;;;;;;;;;;5083296;28;20450;-65
2022/09/12 09:23:51;;;;;;;59.67;4.03;;;;;;;;;;5082085;28;20473;-66
2022/09/12 09:26:25;;;;;;;59.37;3.93;;;;;;;;;;5075947;28;20804;-65
2022/09/12 09:28:54;;;;;;;59.67;3.70;;;;;;;;;;5072439;28;20491;-64
2022/09/12 09:31:22;;;;;;;59.30;3.70;;;;;;;;;;5073117;28;20541;-65
2022/09/12 09:33:50;;;;;;;61.00;5.87;;;;;;;;;;5072606;28;21029;-65
2022/09/12 09:36:21;;;;;;;59.17;3.90;;;;;;;;;;5073026;28;20546;-65
2022/09/12 09:38:49;;;;;;;59.63;4.10;;;;;;;;;;5072541;28;20450;-65
2022/09/12 09:41:23;;;;;;;58.97;3.80;;;;;;;;;;5072670;28;20643;-65
2022/09/12 09:43:50;;;;;;;59.97;4.30;;;;;;;;;;5072760;28;20561;-63
2022/09/12 09:46:18;;;;;;;58.77;3.40;;;;;;;;;;5072711;28;20795;-63
2022/09/12 09:48:46;;;;;;;59.10;3.50;;;;;;;;;;5072238;28;20490;-64
2022/09/12 09:51:14;;;;;;;58.30;3.53;;;;;;;;;;5072522;28;20469;-64
2022/09/12 09:53:46;;;;;;;58.77;3.40;;;;;;;;;;5072549;28;20851;-63
2022/09/12 09:56:16;;;;;;;58.47;3.07;;;;;;;;;;5072643;28;20463;-64
2022/09/12 09:58:43;;;;;;;60.80;3.23;;;;;;;;;;5072416;28;20447;-63
2022/09/12 10:01:15;;;;;;;59.20;2.73;;;;;;;;;;5072389;28;20455;-63
2022/09/12 10:03:48;;;;;;;58.30;2.80;;;;;;;;;;5072301;28;20478;-64
2022/09/12 10:06:24;;;;;;;57.97;2.93;;;;;;;;;;5072188;28;20841;-64
2022/09/12 10:09:04;;;;;;;58.17;2.80;;;;;;;;;;5072068;28;20482;-64
2022/09/12 10:11:31;;;;;;;57.80;2.63;;;;;;;;;;5072382;28;20453;-63
2022/09/12 10:14:00;;;;;;;58.90;2.57;;;;;;;;;;5072077;28;20850;-64
2022/09/12 10:16:28;;;;;;;58.77;2.70;;;;;;;;;;5072139;28;20457;-64
2022/09/12 10:18:56;;;;;;;57.60;2.60;;;;;;;;;;5071711;28;20435;-64
2022/09/12 10:21:28;;;;;;;57.17;2.43;;;;;;;;;;5071950;28;20443;-63
2022/09/12 10:24:02;;;;;;;57.20;2.50;;;;;;;;;;5072116;28;20476;-64
2022/09/12 10:26:33;;;;;;;57.10;2.60;;;;;;;;;;5071920;28;20452;-64
2022/09/12 10:29:03;;;;;;;57.37;2.73;;;;;;;;;;5071500;28;20849;-64
2022/09/12 10:31:38;;;;;;;57.97;2.83;;;;;;;;;;5072120;28;20522;-63
2022/09/12 10:34:05;;;;;;;57.07;2.40;;;;;;;;;;5072017;28;20858;-63
2022/09/12 10:36:37;;;;;;;57.50;2.67;;;;;;;;;;5072072;28;20450;-63
2022/09/12 10:39:06;;;;;;;57.87;2.90;;;;;;;;;;5071603;28;20835;-65
2022/09/12 10:41:37;;;;;;;57.50;2.40;;;;;;;;;;5071889;28;20447;-64
2022/09/12 10:44:08;;;;;;;58.17;2.60;;;;;;;;;;5071559;28;20463;-64
2022/09/12 10:46:36;;;;;;;58.63;2.70;;;;;;;;;;5071974;28;20534;-64
2022/09/12 10:49:21;;;;;;;58.77;2.60;;;;;;;;;;5071266;28;20570;-64
2022/09/12 10:51:48;;;;;;;57.17;2.30;;;;;;;;;;5071767;28;20443;-64
2022/09/12 10:54:18;;;;;;;57.17;2.67;;;;;;;;;;5071785;28;20478;-65
2022/09/12 10:56:50;;;;;;;57.13;2.73;;;;;;;;;;5071858;28;20838;-64
2022/09/12 10:59:25;;;;;;;57.00;2.20;;;;;;;;;;5071598;28;20465;-64
2022/09/12 11:01:56;;;;;;;59.20;3.40;;;;;;;;;;5071577;28;20974;-64
2022/09/12 11:04:32;;;;;;;57.37;2.53;;;;;;;;;;5071787;28;20577;-65
2022/09/12 11:07:06;;;;;;;58.23;3.03;;;;;;;;;;5072004;28;20450;-64
2022/09/12 11:09:38;;;;;;;57.60;2.57;;;;;;;;;;5071276;28;20483;-64
2022/09/12 11:12:11;;;;;;;58.07;2.97;;;;;;;;;;5071791;28;20797;-64
2022/09/12 11:14:45;;;;;;;57.50;2.57;;;;;;;;;;5071452;28;20475;-64
2022/09/12 11:17:19;;;;;;;57.43;2.63;;;;;;;;;;5071432;28;20455;-64
2022/09/12 11:19:56;;;;;;;57.80;2.60;;;;;;;;;;5071507;28;20432;-64
2022/09/12 11:22:28;;;;;;;57.70;2.63;;;;;;;;;;5071563;28;20439;-64
2022/09/12 11:25:16;;;;;;;57.87;2.70;;;;;;;;;;5071283;28;21032;-64
2022/09/12 11:27:55;;;;;;;57.50;2.60;;;;;;;;;;5066601;28;20459;-63
2022/09/12 11:30:22;;;;;;;58.40;2.80;;;;;;;;;;5071522;28;20979;-65
2022/09/12 11:33:07;;;;;;;58.00;2.80;;;;;;;;;;5071513;28;20816;-63
2022/09/12 11:35:35;;;;;;;57.47;2.57;;;;;;;;;;5071221;28;20450;-64
2022/09/12 11:38:12;;;;;;;57.77;2.80;;;;;;;;;;5071056;28;20442;-64
2022/09/12 11:40:42;;;;;;;58.47;2.57;;;;;;;;;;5070962;28;20446;-64
2022/09/12 11:43:17;;;;;;;58.10;2.27;;;;;;;;;;5071178;28;20467;-64
2022/09/12 11:45:45;;;;;;;57.40;2.60;;;;;;;;;;5071229;28;20442;-64
2022/09/12 11:48:13;;;;;;;57.40;2.40;;;;;;;;;;5070937;28;20486;-64
2022/09/12 11:50:40;;;;;;;57.07;2.30;;;;;;;;;;5071001;28;20956;-64
2022/09/12 11:53:12;;;;;;;57.97;2.50;;;;;;;;;;5071223;28;20468;-64
2022/09/12 11:55:45;;;;;;;57.27;2.50;;;;;;;;;;5073465;28;20451;-64
2022/09/12 11:58:13;;;;;;;57.00;2.43;;;;;;;;;;5074938;28;20443;-64
2022/09/12 12:00:44;;;;;;;56.97;2.23;;;;;;;;;;5074427;28;20451;-64
2022/09/12 12:03:15;;;;;;;57.00;2.20;;;;;;;;;;5074844;28;20474;-64
2022/09/12 12:05:46;;;;;;;56.67;2.10;;;;;;;;;;5074553;28;20451;-64
2022/09/12 12:08:13;;;;;;;57.10;2.27;;;;;;;;;;5074405;28;20494;-64
2022/09/12 12:10:41;;;;;;;56.73;2.10;;;;;;;;;;5074321;28;20658;-64
2022/09/12 12:13:11;;;;;;;56.87;2.13;;;;;;;;;;5074320;28;20485;-64
2022/09/12 12:15:39;;;;;;;57.10;2.30;;;;;;;;;;5074307;28;20826;-64
2022/09/12 12:18:08;;;;;;;57.27;2.20;;;;;;;;;;5074481;28;20774;-64
2022/09/12 12:20:36;;;;;;;58.30;2.23;;;;;;;;;;5074173;28;20448;-64
2022/09/12 12:23:04;;;;;;;57.60;2.47;;;;;;;;;;5074241;28;20463;-65
2022/09/12 12:25:41;;;;;;;57.50;2.10;;;;;;;;;;5074218;28;20969;-64
2022/09/12 12:28:09;;;;;;;57.97;2.40;;;;;;;;;;5074015;28;20501;-64
2022/09/12 12:31:03;;;;;;;56.60;2.10;;;;;;;;;;5073996;28;20451;-64
2022/09/12 12:33:48;;;;;;;56.60;1.70;;;;;;;;;;5074058;28;20463;-64
2022/09/12 12:36:32;;;;;;;56.77;2.10;;;;;;;;;;5073942;28;20447;-64
2022/09/12 12:38:59;;;;;;;57.50;2.10;;;;;;;;;;5073624;28;20579;-65
2022/09/12 12:41:45;;;;;;;56.90;2.10;;;;;;;;;;5074119;28;20447;-64
2022/09/12 12:44:31;;;;;;;56.87;2.10;;;;;;;;;;5073733;28;20467;-64
2022/09/12 12:47:13;;;;;;;58.47;2.20;;;;;;;;;;5074034;28;20477;-64
2022/09/12 12:49:40;;;;;;;56.70;2.27;;;;;;;;;;5071588;28;20462;-64
2022/09/12 12:52:16;;;;;;;57.40;2.43;;;;;;;;;;5073747;28;20447;-64
2022/09/12 12:54:52;;;;;;;56.70;1.93;;;;;;;;;;5073675;28;20463;-64
2022/09/12 12:57:23;;;;;;;56.53;2.00;;;;;;;;;;5073922;28;20466;-64
2022/09/12 12:59:52;;;;;;;56.77;2.30;;;;;;;;;;5073376;28;20510;-64
2022/09/12 13:02:22;;;;;;;56.57;2.10;;;;;;;;;;5073727;28;20816;-64
2022/09/12 13:04:49;;;;;;;57.10;2.30;;;;;;;;;;5073332;28;20463;-64
2022/09/12 13:07:23;;;;;;;56.30;1.97;;;;;;;;;;5073626;28;20443;-64
2022/09/12 13:09:53;;;;;;;56.70;2.43;;;;;;;;;;5073249;28;20443;-65
2022/09/12 13:12:22;;;;;;;57.63;2.00;;;;;;;;;;5073524;28;20450;-64
2022/09/12 13:14:54;;;;;;;56.50;2.00;;;;;;;;;;5073238;28;20463;-64
2022/09/12 13:17:26;;;;;;;57.67;2.40;;;;;;;;;;5073335;28;20862;-65
2022/09/12 13:19:54;;;;;;;56.50;2.17;;;;;;;;;;5072716;28;20479;-64
2022/09/12 13:22:25;;;;;;;56.40;1.90;;;;;;;;;;5073210;28;20491;-64
2022/09/12 13:24:52;;;;;;;56.90;2.20;;;;;;;;;;5073198;28;20478;-64
2022/09/12 13:27:20;;;;;;;57.10;2.10;;;;;;;;;;5073129;28;20456;-65
2022/09/12 13:29:47;;;;;;;56.87;2.20;;;;;;;;;;5072877;28;20440;-64
2022/09/12 13:32:14;;;;;;;56.60;2.00;;;;;;;;;;5072924;28;20451;-64
2022/09/12 13:34:47;;;;;;;56.70;1.90;;;;;;;;;;5072417;28;20486;-64
2022/09/12 13:37:31;;;;;;;56.77;2.00;;;;;;;;;;5072978;28;20443;-64
2022/09/12 13:40:03;;;;;;;57.47;2.50;;;;;;;;;;5072508;28;20653;-64
2022/09/12 13:42:40;;;;;;;56.57;2.10;;;;;;;;;;5072820;28;20822;-64
2022/09/12 13:45:11;;;;;;;57.40;2.23;;;;;;;;;;5072537;28;20451;-64
2022/09/12 13:47:40;;;;;;;57.10;2.17;;;;;;;;;;5072675;28;20447;-64
2022/09/12 13:50:09;;;;;;;66.87;2.13;;;;;;;;;;5072258;28;20439;-64
2022/09/12 13:52:39;;;;;;;56.80;1.87;;;;;;;;;;5072603;28;20443;-64
2022/09/12 13:55:07;;;;;;;56.77;2.13;;;;;;;;;;5072501;28;20481;-64
2022/09/12 13:57:36;;;;;;;56.27;1.90;;;;;;;;;;5072217;28;20443;-64
2022/09/12 14:00:05;;;;;;;56.67;2.20;;;;;;;;;;5072213;28;20528;-64
2022/09/12 14:02:35;;;;;;;56.47;2.10;;;;;;;;;;5072448;28;20531;-64
2022/09/12 14:05:10;;;;;;;56.60;2.07;;;;;;;;;;5072388;28;20467;-64
2022/09/12 14:07:51;;;;;;;56.70;2.00;;;;;;;;;;5072285;28;20954;-63
2022/09/12 14:10:21;;;;;;;57.30;2.33;;;;;;;;;;5071880;28;20501;-64
2022/09/12 14:12:49;;;;;;;57.17;2.17;;;;;;;;;;5072251;28;21007;-63
2022/09/12 14:15:18;;;;;;;56.90;2.10;;;;;;;;;;5072193;28;20455;-63
2022/09/12 14:17:50;;;;;;;56.70;1.83;;;;;;;;;;5071494;28;20491;-64
2022/09/12 14:20:18;;;;;;;57.10;1.90;;;;;;;;;;5071557;28;20565;-64
2022/09/12 14:22:47;;;;;;;56.57;1.90;;;;;;;;;;5072164;28;20497;-64
2022/09/12 14:25:15;;;;;;;57.70;2.03;;;;;;;;;;5072261;28;20814;-63
2022/09/12 14:27:45;;;;;;;57.40;1.93;;;;;;;;;;5071942;28;20457;-64
2022/09/12 14:30:21;;;;;;;57.80;2.13;;;;;;;;;;5071926;28;20452;-63
2022/09/12 14:33:03;;;;;;;56.97;2.17;;;;;;;;;;5071857;28;20448;-64
2022/09/12 14:35:31;;;;;;;56.73;2.10;;;;;;;;;;5071911;28;21002;-63
2022/09/12 14:38:07;;;;;;;57.13;2.10;;;;;;;;;;5071922;28;20486;-63
2022/09/12 14:40:41;;;;;;;57.40;2.10;;;;;;;;;;5071330;28;20484;-63
2022/09/12 14:43:17;;;;;;;56.67;2.03;;;;;;;;;;5071716;28;20532;-64
2022/09/12 14:45:44;;;;;;;56.77;2.00;;;;;;;;;;5072040;28;20445;-64
2022/09/12 14:48:19;;;;;;;57.00;2.00;;;;;;;;;;5071876;28;20443;-64
2022/09/12 14:50:49;;;;;;;57.23;2.00;;;;;;;;;;5071584;28;20449;-64